sensor_id;sensor_type;location;lat;lon;timestamp;temperature;humidity
19680;DHT22;9989;48.962;9.182;2022-10-16T00:01:48;17.10;99.90
19680;DHT22;9989;48.962;9.182;2022-10-16T00:04:13;17.10;99.90
19680;DHT22;9989;48.962;9.182;2022-10-16T00:06:39;17.10;99.90
19680;DHT22;9989;48.962;9.182;2022-10-16T00:09:05;17.20;99.90
19680;DHT22;9989;48.962;9.182;2022-10-16T00:11:34;17.20;99.90
19680;DHT22;9989;48.962;9.182;2022-10-16T00:14:03;17.20;99.90
19680;DHT22;9989;48.962;9.182;2022-10-16T00:16:31;17.20;99.90
19680;DHT22;9989;48.962;9.182;2022-10-16T00:18:57;17.20;99.90
19680;DHT22;9989;48.962;9.182;2022-10-16T00:21:25;17.20;99.90
19680;DHT22;9989;48.962;9.182;2022-10-16T00:23:53;17.20;99.90
19680;DHT22;9989;48.962;9.182;2022-10-16T00:26:19;17.20;99.90
19680;DHT22;9989;48.962;9.182;2022-10-16T00:28:50;17.10;99.90
19680;DHT22;9989;48.962;9.182;2022-10-16T00:31:17;17.10;99.90
19680;DHT22;9989;48.962;9.182;2022-10-16T00:33:43;17.10;99.90
19680;DHT22;9989;48.962;9.182;2022-10-16T00:36:11;17.10;99.90
19680;DHT22;9989;48.962;9.182;2022-10-16T00:38:37;17.10;99.90
19680;DHT22;9989;48.962;9.182;2022-10-16T00:41:03;17.10;99.90
19680;DHT22;9989;48.962;9.182;2022-10-16T00:46:00;17.10;99.90
19680;DHT22;9989;48.962;9.182;2022-10-16T00:48:27;17.10;99.90
19680;DHT22;9989;48.962;9.182;2022-10-16T00:50:53;17.10;99.90
19680;DHT22;9989;48.962;9.182;2022-10-16T00:53:19;17.10;99.90
19680;DHT22;9989;48.962;9.182;2022-10-16T00:55:44;17.10;99.90
19680;DHT22;9989;48.962;9.182;2022-10-16T00:58:11;17.10;99.90
19680;DHT22;9989;48.962;9.182;2022-10-16T01:00:37;17.10;99.90
19680;DHT22;9989;48.962;9.182;2022-10-16T01:03:21;17.10;99.90
19680;DHT22;9989;48.962;9.182;2022-10-16T01:05:58;17.10;99.90
19680;DHT22;9989;48.962;9.182;2022-10-16T01:08:39;17.10;99.90
19680;DHT22;9989;48.962;9.182;2022-10-16T01:11:19;17.10;99.90
19680;DHT22;9989;48.962;9.182;2022-10-16T01:13:53;17.20;99.90
19680;DHT22;9989;48.962;9.182;2022-10-16T01:16:37;17.20;99.90
19680;DHT22;9989;48.962;9.182;2022-10-16T01:19:14;17.20;99.90
19680;DHT22;9989;48.962;9.182;2022-10-16T01:21:44;17.20;99.90
19680;DHT22;9989;48.962;9.182;2022-10-16T01:29:44;17.20;99.90
19680;DHT22;9989;48.962;9.182;2022-10-16T01:35:11;17.20;99.90
19680;DHT22;9989;48.962;9.182;2022-10-16T01:37:52;17.20;99.90
19680;DHT22;9989;48.962;9.182;2022-10-16T01:40:20;17.20;99.90
19680;DHT22;9989;48.962;9.182;2022-10-16T01:42:59;17.20;99.90
19680;DHT22;9989;48.962;9.182;2022-10-16T01:45:28;17.20;99.90
19680;DHT22;9989;48.962;9.182;2022-10-16T01:47:55;17.20;99.90
19680;DHT22;9989;48.962;9.182;2022-10-16T01:50:22;17.20;99.90
19680;DHT22;9989;48.962;9.182;2022-10-16T01:52:51;17.20;99.90
19680;DHT22;9989;48.962;9.182;2022-10-16T01:55:26;17.20;99.90
19680;DHT22;9989;48.962;9.182;2022-10-16T01:57:55;17.20;99.90
19680;DHT22;9989;48.962;9.182;2022-10-16T02:00:22;17.20;99.90
19680;DHT22;9989;48.962;9.182;2022-10-16T02:02:50;17.20;99.90
19680;DHT22;9989;48.962;9.182;2022-10-16T02:05:24;17.20;99.90
19680;DHT22;9989;48.962;9.182;2022-10-16T02:07:51;17.20;99.90
19680;DHT22;9989;48.962;9.182;2022-10-16T02:10:17;17.20;99.90
19680;DHT22;9989;48.962;9.182;2022-10-16T02:12:48;17.20;99.90
19680;DHT22;9989;48.962;9.182;2022-10-16T02:15:15;17.20;99.90
19680;DHT22;9989;48.962;9.182;2022-10-16T02:17:41;17.20;99.90
19680;DHT22;9989;48.962;9.182;2022-10-16T02:20:07;17.20;99.90
19680;DHT22;9989;48.962;9.182;2022-10-16T02:22:40;17.30;99.90
19680;DHT22;9989;48.962;9.182;2022-10-16T02:25:22;17.30;99.90
19680;DHT22;9989;48.962;9.182;2022-10-16T02:28:27;17.30;99.90
19680;DHT22;9989;48.962;9.182;2022-10-16T02:31:00;17.30;99.90
19680;DHT22;9989;48.962;9.182;2022-10-16T02:33:28;17.30;99.90
19680;DHT22;9989;48.962;9.182;2022-10-16T02:35:55;17.20;99.90
19680;DHT22;9989;48.962;9.182;2022-10-16T02:38:22;17.20;99.90
19680;DHT22;9989;48.962;9.182;2022-10-16T02:40:49;17.30;99.90
19680;DHT22;9989;48.962;9.182;2022-10-16T02:43:15;17.30;99.90
19680;DHT22;9989;48.962;9.182;2022-10-16T02:45:41;17.30;99.90
19680;DHT22;9989;48.962;9.182;2022-10-16T02:48:07;17.30;99.90
19680;DHT22;9989;48.962;9.182;2022-10-16T02:50:33;17.30;99.90
19680;DHT22;9989;48.962;9.182;2022-10-16T02:52:58;17.30;99.90
19680;DHT22;9989;48.962;9.182;2022-10-16T02:55:24;17.30;99.90
19680;DHT22;9989;48.962;9.182;2022-10-16T02:57:49;17.30;99.90
19680;DHT22;9989;48.962;9.182;2022-10-16T03:00:17;17.30;99.90
19680;DHT22;9989;48.962;9.182;2022-10-16T03:02:43;17.30;99.90
19680;DHT22;9989;48.962;9.182;2022-10-16T03:05:09;17.30;99.90
19680;DHT22;9989;48.962;9.182;2022-10-16T03:07:35;17.20;99.90
19680;DHT22;9989;48.962;9.182;2022-10-16T03:10:00;17.20;99.90
19680;DHT22;9989;48.962;9.182;2022-10-16T03:12:29;17.20;99.90
19680;DHT22;9989;48.962;9.182;2022-10-16T03:14:55;17.20;99.90
19680;DHT22;9989;48.962;9.182;2022-10-16T03:17:22;17.20;99.90
19680;DHT22;9989;48.962;9.182;2022-10-16T03:19:47;17.20;99.90
19680;DHT22;9989;48.962;9.182;2022-10-16T03:22:13;17.20;99.90
19680;DHT22;9989;48.962;9.182;2022-10-16T03:24:39;17.20;99.90
19680;DHT22;9989;48.962;9.182;2022-10-16T03:27:04;17.20;99.90
19680;DHT22;9989;48.962;9.182;2022-10-16T03:29:30;17.10;99.90
19680;DHT22;9989;48.962;9.182;2022-10-16T03:31:57;17.10;99.90
19680;DHT22;9989;48.962;9.182;2022-10-16T03:34:23;17.10;99.90
19680;DHT22;9989;48.962;9.182;2022-10-16T03:36:48;17.10;99.90
19680;DHT22;9989;48.962;9.182;2022-10-16T03:39:14;17.00;99.90
19680;DHT22;9989;48.962;9.182;2022-10-16T03:41:39;17.00;99.90
19680;DHT22;9989;48.962;9.182;2022-10-16T03:44:05;17.00;99.90
19680;DHT22;9989;48.962;9.182;2022-10-16T03:46:31;17.00;99.90
19680;DHT22;9989;48.962;9.182;2022-10-16T03:48:57;17.00;99.90
19680;DHT22;9989;48.962;9.182;2022-10-16T03:51:23;17.00;99.90
19680;DHT22;9989;48.962;9.182;2022-10-16T03:53:48;17.00;99.90
19680;DHT22;9989;48.962;9.182;2022-10-16T03:56:14;16.90;99.90
19680;DHT22;9989;48.962;9.182;2022-10-16T03:58:39;16.90;99.90
19680;DHT22;9989;48.962;9.182;2022-10-16T04:01:05;16.90;99.90
19680;DHT22;9989;48.962;9.182;2022-10-16T04:03:30;16.90;99.90
19680;DHT22;9989;48.962;9.182;2022-10-16T04:05:56;16.80;99.90
19680;DHT22;9989;48.962;9.182;2022-10-16T04:08:22;16.80;99.90
19680;DHT22;9989;48.962;9.182;2022-10-16T04:10:48;16.80;99.90
19680;DHT22;9989;48.962;9.182;2022-10-16T04:13:13;16.80;99.90
19680;DHT22;9989;48.962;9.182;2022-10-16T04:15:39;16.80;99.90
19680;DHT22;9989;48.962;9.182;2022-10-16T04:18:05;16.80;99.90
19680;DHT22;9989;48.962;9.182;2022-10-16T04:20:31;16.80;99.90
19680;DHT22;9989;48.962;9.182;2022-10-16T04:22:57;16.80;99.90
19680;DHT22;9989;48.962;9.182;2022-10-16T04:25:22;16.80;99.90
19680;DHT22;9989;48.962;9.182;2022-10-16T04:27:48;16.80;99.90
19680;DHT22;9989;48.962;9.182;2022-10-16T04:30:14;16.80;99.90
19680;DHT22;9989;48.962;9.182;2022-10-16T04:32:40;16.80;99.90
19680;DHT22;9989;48.962;9.182;2022-10-16T04:35:06;16.80;99.90
19680;DHT22;9989;48.962;9.182;2022-10-16T04:37:32;16.80;99.90
19680;DHT22;9989;48.962;9.182;2022-10-16T04:39:58;16.80;99.90
19680;DHT22;9989;48.962;9.182;2022-10-16T04:42:23;16.70;99.90
19680;DHT22;9989;48.962;9.182;2022-10-16T04:44:49;16.70;99.90
19680;DHT22;9989;48.962;9.182;2022-10-16T04:47:14;16.70;99.90
19680;DHT22;9989;48.962;9.182;2022-10-16T04:49:40;16.70;99.90
19680;DHT22;9989;48.962;9.182;2022-10-16T04:52:06;16.70;99.90
19680;DHT22;9989;48.962;9.182;2022-10-16T04:54:31;16.70;99.90
19680;DHT22;9989;48.962;9.182;2022-10-16T04:56:57;16.70;99.90
19680;DHT22;9989;48.962;9.182;2022-10-16T04:59:23;16.70;99.90
19680;DHT22;9989;48.962;9.182;2022-10-16T05:01:49;16.70;99.90
19680;DHT22;9989;48.962;9.182;2022-10-16T05:04:15;16.80;99.90
19680;DHT22;9989;48.962;9.182;2022-10-16T05:06:42;16.80;99.90
19680;DHT22;9989;48.962;9.182;2022-10-16T05:09:08;16.80;99.90
19680;DHT22;9989;48.962;9.182;2022-10-16T05:11:34;16.80;99.90
19680;DHT22;9989;48.962;9.182;2022-10-16T05:14:00;16.80;99.90
19680;DHT22;9989;48.962;9.182;2022-10-16T05:16:26;16.80;99.90
19680;DHT22;9989;48.962;9.182;2022-10-16T05:18:52;16.80;99.90
19680;DHT22;9989;48.962;9.182;2022-10-16T05:21:18;16.80;99.90
19680;DHT22;9989;48.962;9.182;2022-10-16T05:23:43;16.80;99.90
19680;DHT22;9989;48.962;9.182;2022-10-16T05:26:09;16.80;99.90
19680;DHT22;9989;48.962;9.182;2022-10-16T05:28:35;16.80;99.90
19680;DHT22;9989;48.962;9.182;2022-10-16T05:31:10;16.80;99.90
19680;DHT22;9989;48.962;9.182;2022-10-16T05:33:35;16.70;99.90
19680;DHT22;9989;48.962;9.182;2022-10-16T05:36:05;16.70;99.90
19680;DHT22;9989;48.962;9.182;2022-10-16T05:38:33;16.60;99.90
19680;DHT22;9989;48.962;9.182;2022-10-16T05:40:58;16.60;99.90
19680;DHT22;9989;48.962;9.182;2022-10-16T05:43:24;16.60;99.90
19680;DHT22;9989;48.962;9.182;2022-10-16T05:45:57;16.60;99.90
19680;DHT22;9989;48.962;9.182;2022-10-16T05:48:23;16.50;99.90
19680;DHT22;9989;48.962;9.182;2022-10-16T05:50:59;16.50;99.90
19680;DHT22;9989;48.962;9.182;2022-10-16T05:53:26;16.50;99.90
19680;DHT22;9989;48.962;9.182;2022-10-16T05:55:53;16.50;99.90
19680;DHT22;9989;48.962;9.182;2022-10-16T05:58:19;16.50;99.90
19680;DHT22;9989;48.962;9.182;2022-10-16T06:00:44;16.50;99.90
19680;DHT22;9989;48.962;9.182;2022-10-16T06:03:10;16.50;99.90
19680;DHT22;9989;48.962;9.182;2022-10-16T06:05:35;16.50;99.90
19680;DHT22;9989;48.962;9.182;2022-10-16T06:08:01;16.50;99.90
19680;DHT22;9989;48.962;9.182;2022-10-16T06:10:27;16.50;99.90
19680;DHT22;9989;48.962;9.182;2022-10-16T06:12:54;16.50;99.90
19680;DHT22;9989;48.962;9.182;2022-10-16T06:15:19;16.50;99.90
19680;DHT22;9989;48.962;9.182;2022-10-16T06:17:45;16.50;99.90
19680;DHT22;9989;48.962;9.182;2022-10-16T06:20:10;16.50;99.90
19680;DHT22;9989;48.962;9.182;2022-10-16T06:22:36;16.50;99.90
19680;DHT22;9989;48.962;9.182;2022-10-16T06:25:02;16.50;99.90
19680;DHT22;9989;48.962;9.182;2022-10-16T06:27:27;16.50;99.90
19680;DHT22;9989;48.962;9.182;2022-10-16T06:29:53;16.50;99.90
19680;DHT22;9989;48.962;9.182;2022-10-16T06:32:18;16.50;99.90
19680;DHT22;9989;48.962;9.182;2022-10-16T06:34:44;16.60;99.90
19680;DHT22;9989;48.962;9.182;2022-10-16T06:37:09;16.60;99.90
19680;DHT22;9989;48.962;9.182;2022-10-16T06:39:35;16.70;99.90
19680;DHT22;9989;48.962;9.182;2022-10-16T06:42:00;16.70;99.90
19680;DHT22;9989;48.962;9.182;2022-10-16T06:44:26;16.70;99.90
19680;DHT22;9989;48.962;9.182;2022-10-16T06:46:51;16.70;99.90
19680;DHT22;9989;48.962;9.182;2022-10-16T06:49:17;16.70;99.90
19680;DHT22;9989;48.962;9.182;2022-10-16T06:51:47;16.80;99.90
19680;DHT22;9989;48.962;9.182;2022-10-16T06:54:14;16.80;99.90
19680;DHT22;9989;48.962;9.182;2022-10-16T06:56:40;16.80;99.90
19680;DHT22;9989;48.962;9.182;2022-10-16T06:59:06;16.90;99.90
19680;DHT22;9989;48.962;9.182;2022-10-16T07:01:31;16.90;99.90
19680;DHT22;9989;48.962;9.182;2022-10-16T07:03:57;17.00;99.90
19680;DHT22;9989;48.962;9.182;2022-10-16T07:06:24;17.00;99.90
19680;DHT22;9989;48.962;9.182;2022-10-16T07:08:51;17.10;99.90
19680;DHT22;9989;48.962;9.182;2022-10-16T07:11:19;17.10;99.90
19680;DHT22;9989;48.962;9.182;2022-10-16T07:13:45;17.20;99.90
19680;DHT22;9989;48.962;9.182;2022-10-16T07:16:14;17.30;99.90
19680;DHT22;9989;48.962;9.182;2022-10-16T07:18:41;17.30;99.90
19680;DHT22;9989;48.962;9.182;2022-10-16T07:21:13;17.30;99.90
19680;DHT22;9989;48.962;9.182;2022-10-16T07:23:39;17.30;99.90
19680;DHT22;9989;48.962;9.182;2022-10-16T07:26:06;17.30;99.90
19680;DHT22;9989;48.962;9.182;2022-10-16T07:28:32;17.30;99.90
19680;DHT22;9989;48.962;9.182;2022-10-16T07:31:10;17.30;99.90
19680;DHT22;9989;48.962;9.182;2022-10-16T07:33:37;17.30;99.90
19680;DHT22;9989;48.962;9.182;2022-10-16T07:36:04;17.30;99.90
19680;DHT22;9989;48.962;9.182;2022-10-16T07:38:30;17.40;99.90
19680;DHT22;9989;48.962;9.182;2022-10-16T07:41:03;17.30;99.90
19680;DHT22;9989;48.962;9.182;2022-10-16T07:43:29;17.30;99.90
19680;DHT22;9989;48.962;9.182;2022-10-16T07:45:55;17.30;99.90
19680;DHT22;9989;48.962;9.182;2022-10-16T07:48:21;17.30;99.90
19680;DHT22;9989;48.962;9.182;2022-10-16T07:50:47;17.30;99.90
19680;DHT22;9989;48.962;9.182;2022-10-16T07:53:14;17.30;99.90
19680;DHT22;9989;48.962;9.182;2022-10-16T07:55:40;17.30;99.90
19680;DHT22;9989;48.962;9.182;2022-10-16T07:58:06;17.30;99.90
19680;DHT22;9989;48.962;9.182;2022-10-16T08:00:32;17.40;99.90
19680;DHT22;9989;48.962;9.182;2022-10-16T08:02:58;17.50;99.90
19680;DHT22;9989;48.962;9.182;2022-10-16T08:05:28;17.60;99.90
19680;DHT22;9989;48.962;9.182;2022-10-16T08:07:53;17.70;99.90
19680;DHT22;9989;48.962;9.182;2022-10-16T08:10:21;17.90;99.90
19680;DHT22;9989;48.962;9.182;2022-10-16T08:12:47;18.10;99.90
19680;DHT22;9989;48.962;9.182;2022-10-16T08:15:12;18.30;99.90
19680;DHT22;9989;48.962;9.182;2022-10-16T08:17:38;18.60;99.90
19680;DHT22;9989;48.962;9.182;2022-10-16T08:20:05;19.10;99.90
19680;DHT22;9989;48.962;9.182;2022-10-16T08:22:30;19.60;99.90
19680;DHT22;9989;48.962;9.182;2022-10-16T08:24:56;20.20;99.90
19680;DHT22;9989;48.962;9.182;2022-10-16T08:27:22;21.20;99.90
19680;DHT22;9989;48.962;9.182;2022-10-16T08:29:48;22.10;99.90
19680;DHT22;9989;48.962;9.182;2022-10-16T08:32:14;22.80;99.90
19680;DHT22;9989;48.962;9.182;2022-10-16T08:34:39;23.50;99.90
19680;DHT22;9989;48.962;9.182;2022-10-16T08:37:05;24.00;99.90
19680;DHT22;9989;48.962;9.182;2022-10-16T08:39:32;24.50;99.90
19680;DHT22;9989;48.962;9.182;2022-10-16T08:47:45;24.10;99.90
19680;DHT22;9989;48.962;9.182;2022-10-16T08:50:21;23.60;99.90
19680;DHT22;9989;48.962;9.182;2022-10-16T08:52:48;23.10;99.90
19680;DHT22;9989;48.962;9.182;2022-10-16T08:55:49;22.70;99.90
19680;DHT22;9989;48.962;9.182;2022-10-16T08:58:25;22.30;99.90
19680;DHT22;9989;48.962;9.182;2022-10-16T09:00:56;22.00;99.90
19680;DHT22;9989;48.962;9.182;2022-10-16T09:22:32;20.60;99.90
19680;DHT22;9989;48.962;9.182;2022-10-16T09:25:00;20.60;99.90
19680;DHT22;9989;48.962;9.182;2022-10-16T09:27:35;20.90;99.90
19680;DHT22;9989;48.962;9.182;2022-10-16T09:30:01;21.70;99.90
19680;DHT22;9989;48.962;9.182;2022-10-16T09:32:28;23.10;99.90
19680;DHT22;9989;48.962;9.182;2022-10-16T09:34:55;25.10;99.90
19680;DHT22;9989;48.962;9.182;2022-10-16T09:37:24;27.40;99.90
19680;DHT22;9989;48.962;9.182;2022-10-16T09:39:52;29.70;99.90
19680;DHT22;9989;48.962;9.182;2022-10-16T09:42:21;31.80;96.50
19680;DHT22;9989;48.962;9.182;2022-10-16T09:44:50;33.40;87.80
19680;DHT22;9989;48.962;9.182;2022-10-16T09:47:20;34.90;79.20
19680;DHT22;9989;48.962;9.182;2022-10-16T09:50:04;36.40;69.60
19680;DHT22;9989;48.962;9.182;2022-10-16T09:52:32;37.80;64.60
19680;DHT22;9989;48.962;9.182;2022-10-16T09:55:12;38.30;57.70
19680;DHT22;9989;48.962;9.182;2022-10-16T09:57:54;39.00;56.50
19680;DHT22;9989;48.962;9.182;2022-10-16T10:00:21;40.20;54.30
19680;DHT22;9989;48.962;9.182;2022-10-16T10:02:48;41.20;50.00
19680;DHT22;9989;48.962;9.182;2022-10-16T10:05:25;41.90;47.70
19680;DHT22;9989;48.962;9.182;2022-10-16T10:08:04;41.90;47.30
19680;DHT22;9989;48.962;9.182;2022-10-16T10:10:33;41.00;46.60
19680;DHT22;9989;48.962;9.182;2022-10-16T10:12:59;40.50;47.70
19680;DHT22;9989;48.962;9.182;2022-10-16T10:15:27;40.50;46.20
19680;DHT22;9989;48.962;9.182;2022-10-16T10:17:57;40.50;46.40
19680;DHT22;9989;48.962;9.182;2022-10-16T10:20:31;40.60;46.10
19680;DHT22;9989;48.962;9.182;2022-10-16T10:22:59;41.00;46.00
19680;DHT22;9989;48.962;9.182;2022-10-16T10:25:39;41.00;45.10
19680;DHT22;9989;48.962;9.182;2022-10-16T10:28:39;40.10;45.70
19680;DHT22;9989;48.962;9.182;2022-10-16T10:31:25;38.40;47.10
19680;DHT22;9989;48.962;9.182;2022-10-16T10:34:19;36.60;49.60
19680;DHT22;9989;48.962;9.182;2022-10-16T10:36:59;34.90;52.20
19680;DHT22;9989;48.962;9.182;2022-10-16T10:39:35;33.40;54.60
19680;DHT22;9989;48.962;9.182;2022-10-16T10:42:25;32.10;57.30
19680;DHT22;9989;48.962;9.182;2022-10-16T10:50:49;29.20;64.70
19680;DHT22;9989;48.962;9.182;2022-10-16T10:56:45;28.00;69.90
19680;DHT22;9989;48.962;9.182;2022-10-16T11:04:46;27.60;73.30
19680;DHT22;9989;48.962;9.182;2022-10-16T11:07:31;27.70;73.20
19680;DHT22;9989;48.962;9.182;2022-10-16T11:10:07;27.90;73.40
19680;DHT22;9989;48.962;9.182;2022-10-16T11:12:42;28.10;73.30
19680;DHT22;9989;48.962;9.182;2022-10-16T11:15:14;28.50;72.60
19680;DHT22;9989;48.962;9.182;2022-10-16T11:17:52;29.60;71.30
19680;DHT22;9989;48.962;9.182;2022-10-16T11:25:25;36.90;55.00
19680;DHT22;9989;48.962;9.182;2022-10-16T11:30:28;40.30;48.00
19680;DHT22;9989;48.962;9.182;2022-10-16T11:35:43;42.80;42.90
19680;DHT22;9989;48.962;9.182;2022-10-16T11:43:42;44.80;38.80
19680;DHT22;9989;48.962;9.182;2022-10-16T11:46:12;45.40;37.80
19680;DHT22;9989;48.962;9.182;2022-10-16T11:51:39;46.50;36.00
19680;DHT22;9989;48.962;9.182;2022-10-16T11:54:18;46.60;34.70
19680;DHT22;9989;48.962;9.182;2022-10-16T11:56:48;46.10;35.10
19680;DHT22;9989;48.962;9.182;2022-10-16T12:05:00;43.70;36.50
19680;DHT22;9989;48.962;9.182;2022-10-16T12:07:36;42.10;37.80
19680;DHT22;9989;48.962;9.182;2022-10-16T12:10:25;40.80;39.50
19680;DHT22;9989;48.962;9.182;2022-10-16T12:12:52;40.50;40.90
19680;DHT22;9989;48.962;9.182;2022-10-16T12:15:22;41.10;39.90
19680;DHT22;9989;48.962;9.182;2022-10-16T12:17:48;41.90;38.90
19680;DHT22;9989;48.962;9.182;2022-10-16T12:23:02;44.50;37.40
19680;DHT22;9989;48.962;9.182;2022-10-16T12:25:33;45.40;35.30
19680;DHT22;9989;48.962;9.182;2022-10-16T12:28:21;44.70;35.50
19680;DHT22;9989;48.962;9.182;2022-10-16T12:30:55;43.00;36.90
19680;DHT22;9989;48.962;9.182;2022-10-16T12:33:25;41.70;38.30
19680;DHT22;9989;48.962;9.182;2022-10-16T12:35:52;41.30;38.70
19680;DHT22;9989;48.962;9.182;2022-10-16T12:38:27;42.00;39.20
19680;DHT22;9989;48.962;9.182;2022-10-16T12:40:58;43.20;38.00
19680;DHT22;9989;48.962;9.182;2022-10-16T12:43:42;43.10;37.70
19680;DHT22;9989;48.962;9.182;2022-10-16T12:48:34;40.80;39.70
19680;DHT22;9989;48.962;9.182;2022-10-16T12:54:03;38.00;42.40
19680;DHT22;9989;48.962;9.182;2022-10-16T12:56:41;37.00;44.90
19680;DHT22;9989;48.962;9.182;2022-10-16T13:02:38;38.60;44.50
19680;DHT22;9989;48.962;9.182;2022-10-16T13:10:40;37.00;44.20
19680;DHT22;9989;48.962;9.182;2022-10-16T13:16:27;34.80;46.90
19680;DHT22;9989;48.962;9.182;2022-10-16T13:19:16;33.70;48.50
19680;DHT22;9989;48.962;9.182;2022-10-16T13:27:40;31.40;54.10
19680;DHT22;9989;48.962;9.182;2022-10-16T13:30:15;30.90;54.90
19680;DHT22;9989;48.962;9.182;2022-10-16T13:32:47;30.40;55.90
19680;DHT22;9989;48.962;9.182;2022-10-16T13:35:47;30.10;57.10
19680;DHT22;9989;48.962;9.182;2022-10-16T13:38:14;29.70;58.20
19680;DHT22;9989;48.962;9.182;2022-10-16T13:41:02;29.50;59.10
19680;DHT22;9989;48.962;9.182;2022-10-16T13:46:14;30.60;59.60
19680;DHT22;9989;48.962;9.182;2022-10-16T13:48:40;32.90;56.50
19680;DHT22;9989;48.962;9.182;2022-10-16T13:51:18;35.30;51.70
19680;DHT22;9989;48.962;9.182;2022-10-16T13:53:44;36.90;48.40
19680;DHT22;9989;48.962;9.182;2022-10-16T13:56:12;37.10;47.40
19680;DHT22;9989;48.962;9.182;2022-10-16T13:58:38;36.90;47.50
19680;DHT22;9989;48.962;9.182;2022-10-16T14:01:13;37.50;46.60
19680;DHT22;9989;48.962;9.182;2022-10-16T14:03:41;38.80;44.30
19680;DHT22;9989;48.962;9.182;2022-10-16T14:06:12;40.10;42.70
19680;DHT22;9989;48.962;9.182;2022-10-16T14:08:43;40.70;41.40
19680;DHT22;9989;48.962;9.182;2022-10-16T14:11:10;40.70;41.20
19680;DHT22;9989;48.962;9.182;2022-10-16T14:13:44;40.20;41.20
19680;DHT22;9989;48.962;9.182;2022-10-16T14:16:17;39.50;41.70
19680;DHT22;9989;48.962;9.182;2022-10-16T14:18:50;38.60;42.30
19680;DHT22;9989;48.962;9.182;2022-10-16T14:21:20;37.30;43.70
19680;DHT22;9989;48.962;9.182;2022-10-16T14:23:46;36.20;45.50
19680;DHT22;9989;48.962;9.182;2022-10-16T14:26:13;35.10;46.90
19680;DHT22;9989;48.962;9.182;2022-10-16T14:28:40;34.10;48.50
19680;DHT22;9989;48.962;9.182;2022-10-16T14:31:25;33.20;50.10
19680;DHT22;9989;48.962;9.182;2022-10-16T14:33:51;32.60;51.80
19680;DHT22;9989;48.962;9.182;2022-10-16T14:36:17;32.00;53.00
19680;DHT22;9989;48.962;9.182;2022-10-16T14:39:05;31.50;53.80
19680;DHT22;9989;48.962;9.182;2022-10-16T14:41:35;31.00;55.00
19680;DHT22;9989;48.962;9.182;2022-10-16T14:44:06;30.60;55.80
19680;DHT22;9989;48.962;9.182;2022-10-16T14:46:35;30.10;56.70
19680;DHT22;9989;48.962;9.182;2022-10-16T14:49:17;29.80;58.00
19680;DHT22;9989;48.962;9.182;2022-10-16T14:51:44;29.50;58.50
19680;DHT22;9989;48.962;9.182;2022-10-16T14:54:12;29.30;58.50
19680;DHT22;9989;48.962;9.182;2022-10-16T14:56:56;29.10;59.30
19680;DHT22;9989;48.962;9.182;2022-10-16T15:01:55;29.10;60.70
19680;DHT22;9989;48.962;9.182;2022-10-16T15:04:21;29.00;61.40
19680;DHT22;9989;48.962;9.182;2022-10-16T15:06:47;28.90;62.40
19680;DHT22;9989;48.962;9.182;2022-10-16T15:09:12;28.80;62.50
19680;DHT22;9989;48.962;9.182;2022-10-16T15:11:38;29.10;62.00
19680;DHT22;9989;48.962;9.182;2022-10-16T15:14:04;29.70;61.30
19680;DHT22;9989;48.962;9.182;2022-10-16T15:16:31;30.40;60.00
19680;DHT22;9989;48.962;9.182;2022-10-16T15:18:57;31.10;59.00
19680;DHT22;9989;48.962;9.182;2022-10-16T15:23:50;32.10;56.60
19680;DHT22;9989;48.962;9.182;2022-10-16T15:26:16;31.80;56.40
19680;DHT22;9989;48.962;9.182;2022-10-16T15:28:41;31.30;57.30
19680;DHT22;9989;48.962;9.182;2022-10-16T15:31:07;30.70;58.10
19680;DHT22;9989;48.962;9.182;2022-10-16T15:33:33;30.00;59.20
19680;DHT22;9989;48.962;9.182;2022-10-16T15:36:00;29.40;60.60
19680;DHT22;9989;48.962;9.182;2022-10-16T15:38:27;28.80;62.30
19680;DHT22;9989;48.962;9.182;2022-10-16T15:40:53;28.40;64.50
19680;DHT22;9989;48.962;9.182;2022-10-16T15:43:19;28.00;65.60
19680;DHT22;9989;48.962;9.182;2022-10-16T15:46:01;27.70;66.80
19680;DHT22;9989;48.962;9.182;2022-10-16T15:48:28;27.30;68.00
19680;DHT22;9989;48.962;9.182;2022-10-16T15:50:54;27.10;69.30
19680;DHT22;9989;48.962;9.182;2022-10-16T15:53:20;26.90;70.00
19680;DHT22;9989;48.962;9.182;2022-10-16T15:55:45;26.70;70.90
19680;DHT22;9989;48.962;9.182;2022-10-16T15:58:11;26.60;71.60
19680;DHT22;9989;48.962;9.182;2022-10-16T16:00:36;26.40;72.50
19680;DHT22;9989;48.962;9.182;2022-10-16T16:03:03;26.20;73.10
19680;DHT22;9989;48.962;9.182;2022-10-16T16:05:29;26.10;73.70
19680;DHT22;9989;48.962;9.182;2022-10-16T16:07:54;25.90;74.80
19680;DHT22;9989;48.962;9.182;2022-10-16T16:10:20;25.70;75.70
19680;DHT22;9989;48.962;9.182;2022-10-16T16:12:49;25.50;76.70
19680;DHT22;9989;48.962;9.182;2022-10-16T16:15:21;25.40;77.20
19680;DHT22;9989;48.962;9.182;2022-10-16T16:17:47;25.20;77.90
19680;DHT22;9989;48.962;9.182;2022-10-16T16:20:13;25.00;79.10
19680;DHT22;9989;48.962;9.182;2022-10-16T16:22:39;24.80;80.50
19680;DHT22;9989;48.962;9.182;2022-10-16T16:25:05;24.60;81.70
19680;DHT22;9989;48.962;9.182;2022-10-16T16:27:31;24.40;82.90
19680;DHT22;9989;48.962;9.182;2022-10-16T16:29:59;24.20;84.00
19680;DHT22;9989;48.962;9.182;2022-10-16T16:32:24;24.10;85.00
19680;DHT22;9989;48.962;9.182;2022-10-16T16:34:50;23.90;85.90
19680;DHT22;9989;48.962;9.182;2022-10-16T16:37:16;23.70;87.10
19680;DHT22;9989;48.962;9.182;2022-10-16T16:39:41;23.60;88.50
19680;DHT22;9989;48.962;9.182;2022-10-16T16:42:07;23.40;89.70
19680;DHT22;9989;48.962;9.182;2022-10-16T16:44:33;23.30;90.50
19680;DHT22;9989;48.962;9.182;2022-10-16T16:47:02;23.20;91.30
19680;DHT22;9989;48.962;9.182;2022-10-16T16:49:28;23.10;92.10
19680;DHT22;9989;48.962;9.182;2022-10-16T16:51:53;23.00;93.00
19680;DHT22;9989;48.962;9.182;2022-10-16T16:54:19;22.90;93.90
19680;DHT22;9989;48.962;9.182;2022-10-16T16:56:45;22.80;94.90
19680;DHT22;9989;48.962;9.182;2022-10-16T16:59:19;22.70;96.00
19680;DHT22;9989;48.962;9.182;2022-10-16T17:01:45;22.60;97.20
19680;DHT22;9989;48.962;9.182;2022-10-16T17:04:11;22.50;98.60
19680;DHT22;9989;48.962;9.182;2022-10-16T17:06:38;22.40;99.90
19680;DHT22;9989;48.962;9.182;2022-10-16T17:09:05;22.40;99.90
19680;DHT22;9989;48.962;9.182;2022-10-16T17:11:31;22.30;99.90
19680;DHT22;9989;48.962;9.182;2022-10-16T17:13:58;22.20;99.90
19680;DHT22;9989;48.962;9.182;2022-10-16T17:16:30;22.10;99.90
19680;DHT22;9989;48.962;9.182;2022-10-16T17:18:59;22.00;99.90
19680;DHT22;9989;48.962;9.182;2022-10-16T17:21:24;21.90;99.90
19680;DHT22;9989;48.962;9.182;2022-10-16T17:23:52;21.80;99.90
19680;DHT22;9989;48.962;9.182;2022-10-16T17:26:18;21.80;99.90
19680;DHT22;9989;48.962;9.182;2022-10-16T17:28:43;21.70;99.90
19680;DHT22;9989;48.962;9.182;2022-10-16T17:31:13;21.60;99.90
19680;DHT22;9989;48.962;9.182;2022-10-16T17:33:40;21.50;99.90
19680;DHT22;9989;48.962;9.182;2022-10-16T17:36:06;21.40;99.90
19680;DHT22;9989;48.962;9.182;2022-10-16T17:38:32;21.30;99.90
19680;DHT22;9989;48.962;9.182;2022-10-16T17:40:58;21.30;99.90
19680;DHT22;9989;48.962;9.182;2022-10-16T17:43:23;21.20;99.90
19680;DHT22;9989;48.962;9.182;2022-10-16T17:45:49;21.10;99.90